createdAt,value
2018-10-21T00:01:08.586Z,77.48
2018-10-21T00:03:36.126Z,78.41
2018-10-21T00:06:03.831Z,78.65
2018-10-21T00:08:31.397Z,77.83
2018-10-21T00:10:58.942Z,77.88
2018-10-21T00:13:26.504Z,77.95
2018-10-21T00:15:54.088Z,78.18
2018-10-21T00:18:21.686Z,77.60
2018-10-21T00:20:49.257Z,77.50
2018-10-21T00:23:16.799Z,77.12
2018-10-21T00:25:44.488Z,76.98
2018-10-21T00:28:12.019Z,76.99
2018-10-21T00:30:39.592Z,77.07
2018-10-21T00:33:07.182Z,76.78
2018-10-21T00:35:34.697Z,76.60
2018-10-21T00:38:02.290Z,77.19
2018-10-21T00:40:29.813Z,76.98
2018-10-21T00:42:57.437Z,76.80
2018-10-21T00:45:24.971Z,77.49
2018-10-21T00:47:52.526Z,77.62
2018-10-21T00:50:20.078Z,77.72
2018-10-21T00:52:47.602Z,77.66
2018-10-21T00:55:15.167Z,78.03
2018-10-21T00:57:42.723Z,78.38
2018-10-21T01:00:12.020Z,78.52
2018-10-21T01:02:39.647Z,79.00
2018-10-21T01:05:08.137Z,79.05
2018-10-21T01:07:35.750Z,79.04
2018-10-21T01:10:03.619Z,78.31
2018-10-21T01:12:31.178Z,77.39
2018-10-21T01:14:58.774Z,77.47
2018-10-21T01:17:26.354Z,77.38
2018-10-21T01:19:53.888Z,78.05
2018-10-21T01:22:21.703Z,78.11
2018-10-21T01:24:49.710Z,79.17
2018-10-21T01:27:17.333Z,78.24
2018-10-21T01:29:46.625Z,77.92
2018-10-21T01:32:15.679Z,78.42
2018-10-21T01:34:43.224Z,78.93
2018-10-21T01:37:10.876Z,79.32
2018-10-21T01:39:44.234Z,79.84
2018-10-21T01:42:11.748Z,80.92
2018-10-21T01:44:39.284Z,80.66
2018-10-21T01:47:06.903Z,80.39
2018-10-21T01:49:34.433Z,80.28
2018-10-21T01:52:01.943Z,80.28
2018-10-21T01:54:29.497Z,80.13
2018-10-21T01:56:57.040Z,79.92
2018-10-21T01:59:24.579Z,79.94
2018-10-21T02:01:52.118Z,79.93
2018-10-21T02:04:19.786Z,79.90
2018-10-21T02:06:47.361Z,80.20
2018-10-21T02:09:14.958Z,80.38
2018-10-21T02:11:42.506Z,80.38
2018-10-21T02:14:10.077Z,79.72
2018-10-21T02:16:37.894Z,79.85
2018-10-21T02:19:05.442Z,79.78
2018-10-21T02:21:32.997Z,79.35
2018-10-21T02:24:00.570Z,79.41
2018-10-21T02:26:28.233Z,80.33
2018-10-21T02:28:55.634Z,80.51
2018-10-21T02:31:23.156Z,80.50
2018-10-21T02:33:50.715Z,80.78
2018-10-21T02:36:18.615Z,80.64
2018-10-21T02:38:46.139Z,80.99
2018-10-21T02:41:20.632Z,81.46
2018-10-21T02:43:48.176Z,81.23
2018-10-21T02:46:15.700Z,80.04
2018-10-21T02:48:43.232Z,79.52
2018-10-21T02:51:11.805Z,79.62
2018-10-21T02:53:39.359Z,79.70
2018-10-21T02:56:07.750Z,79.22
2018-10-21T02:58:35.652Z,79.68
2018-10-21T03:01:03.206Z,79.70
2018-10-21T03:03:30.784Z,79.82
2018-10-21T03:05:58.339Z,80.20
2018-10-21T03:08:26.046Z,79.20
2018-10-21T03:10:53.639Z,78.86
2018-10-21T03:13:21.216Z,79.45
2018-10-21T03:15:48.759Z,79.90
2018-10-21T03:18:16.440Z,80.54
2018-10-21T03:20:43.976Z,80.30
2018-10-21T03:23:11.539Z,80.89
2018-10-21T03:25:39.131Z,80.73
2018-10-21T03:28:06.645Z,80.65
2018-10-21T03:30:34.235Z,81.36
2018-10-21T03:33:01.827Z,81.64
2018-10-21T03:35:29.308Z,81.85
2018-10-21T03:37:57.634Z,82.03
2018-10-21T03:40:25.363Z,81.50
2018-10-21T03:42:53.215Z,80.63
2018-10-21T03:45:20.758Z,80.58
2018-10-21T03:47:48.345Z,80.58
2018-10-21T03:50:15.935Z,80.46
2018-10-21T03:52:43.444Z,80.14
2018-10-21T03:55:11.029Z,80.07
2018-10-21T03:57:38.563Z,79.91
2018-10-21T04:00:06.667Z,79.60
2018-10-21T04:02:34.217Z,79.45
2018-10-21T04:05:02.067Z,79.28
2018-10-21T04:07:29.619Z,79.39
2018-10-21T04:09:57.218Z,79.35
2018-10-21T04:12:24.779Z,79.14
2018-10-21T04:14:52.291Z,78.69
2018-10-21T04:17:20.097Z,78.47
2018-10-21T04:19:47.634Z,78.79
2018-10-21T04:22:15.275Z,78.80
2018-10-21T04:24:42.751Z,78.38
2018-10-21T04:27:10.274Z,78.72
2018-10-21T04:29:37.788Z,78.77
2018-10-21T04:32:05.365Z,79.44
2018-10-21T04:34:32.919Z,79.53
2018-10-21T04:37:06.175Z,79.37
2018-10-21T04:39:39.470Z,79.53
2018-10-21T04:42:07.363Z,78.56
2018-10-21T04:44:34.929Z,78.93
2018-10-21T04:47:02.550Z,78.18
2018-10-21T04:49:30.248Z,78.52
2018-10-21T04:51:57.807Z,79.10
2018-10-21T04:54:26.242Z,79.50
2018-10-21T04:56:53.790Z,79.71
2018-10-21T04:59:21.342Z,80.06
2018-10-21T05:01:48.863Z,79.88
2018-10-21T05:04:16.425Z,79.98
2018-10-21T05:06:43.943Z,79.19
2018-10-21T05:09:11.482Z,79.58
2018-10-21T05:11:39.309Z,80.25
2018-10-21T05:14:06.855Z,79.81
2018-10-21T05:16:34.413Z,79.31
2018-10-21T05:19:01.998Z,79.04
2018-10-21T05:21:29.579Z,78.47
2018-10-21T05:23:57.243Z,77.97
2018-10-21T05:26:24.667Z,78.16
2018-10-21T05:28:52.236Z,77.91
2018-10-21T05:31:19.775Z,78.60
2018-10-21T05:33:47.382Z,78.16
2018-10-21T05:36:14.918Z,78.56
2018-10-21T05:38:42.464Z,79.52
2018-10-21T05:41:10.065Z,79.61
2018-10-21T05:43:37.594Z,78.84
2018-10-21T05:46:05.295Z,78.02
2018-10-21T05:48:32.995Z,78.15
2018-10-21T05:51:00.530Z,78.54
2018-10-21T05:53:28.038Z,78.72
2018-10-21T05:55:55.577Z,78.78
2018-10-21T05:58:23.180Z,79.25
2018-10-21T06:00:50.640Z,79.61
2018-10-21T06:03:18.153Z,79.80
2018-10-21T06:05:47.122Z,79.81
2018-10-21T06:08:14.707Z,80.36
2018-10-21T06:10:42.859Z,80.06
2018-10-21T06:13:11.715Z,80.63
2018-10-21T06:15:39.432Z,81.25
2018-10-21T06:18:10.410Z,81.89
2018-10-21T06:20:41.367Z,82.27
2018-10-21T06:23:08.894Z,83.06
2018-10-21T06:25:37.603Z,83.43
2018-10-21T06:28:05.374Z,83.88
2018-10-21T06:30:32.967Z,84.01
2018-10-21T06:33:00.537Z,84.01
2018-10-21T06:35:28.103Z,84.89
2018-10-21T06:37:55.654Z,85.31
2018-10-21T06:40:23.233Z,85.22
2018-10-21T06:42:50.830Z,84.91
2018-10-21T06:45:18.505Z,84.09
2018-10-21T06:47:45.936Z,83.91
2018-10-21T06:50:14.731Z,83.96
2018-10-21T06:52:42.283Z,84.24
2018-10-21T06:55:09.857Z,83.87
2018-10-21T06:57:37.437Z,83.67
2018-10-21T07:00:05.103Z,83.49
2018-10-21T07:02:32.678Z,83.13
2018-10-21T07:05:00.305Z,83.01
2018-10-21T07:07:27.782Z,82.42
2018-10-21T07:09:55.378Z,82.31
2018-10-21T07:12:22.902Z,82.20
2018-10-21T07:14:50.501Z,81.83
2018-10-21T07:17:18.155Z,81.76
2018-10-21T07:19:45.706Z,81.15
2018-10-21T07:22:13.314Z,80.50
2018-10-21T07:24:40.860Z,79.94
2018-10-21T07:27:08.392Z,79.70
2018-10-21T07:29:35.942Z,79.16
2018-10-21T07:32:03.482Z,78.82
2018-10-21T07:34:31.062Z,77.83
2018-10-21T07:36:58.614Z,75.85
2018-10-21T07:39:26.170Z,74.38
2018-10-21T07:41:53.738Z,71.62
2018-10-21T07:44:21.319Z,70.22
2018-10-21T07:46:48.861Z,68.01
2018-10-21T07:49:16.463Z,66.13
2018-10-21T07:51:43.967Z,62.49
2018-10-21T07:54:11.548Z,57.72
2018-10-21T07:56:39.143Z,52.64
2018-10-21T07:59:06.676Z,47.77
2018-10-21T08:01:34.253Z,44.64
2018-10-21T08:04:01.863Z,42.46
2018-10-21T08:06:36.234Z,40.09
2018-10-21T08:09:05.852Z,37.96
2018-10-21T08:11:33.394Z,38.32
2018-10-21T08:14:00.967Z,37.75
2018-10-21T08:16:28.548Z,35.37
2018-10-21T08:18:56.090Z,34.61
2018-10-21T08:21:24.456Z,33.64
2018-10-21T08:23:52.027Z,31.91
2018-10-21T08:26:19.566Z,34.68
2018-10-21T08:28:47.602Z,33.98
2018-10-21T08:31:15.151Z,33.82
2018-10-21T08:33:42.661Z,33.85
2018-10-21T08:36:10.382Z,34.75
2018-10-21T08:38:38.882Z,32.26
2018-10-21T08:41:06.442Z,30.93
2018-10-21T08:43:33.998Z,29.99
2018-10-21T08:46:01.545Z,28.58
2018-10-21T08:48:29.024Z,28.55
2018-10-21T08:50:56.605Z,27.72
2018-10-21T08:53:24.123Z,26.74
2018-10-21T08:55:51.805Z,27.00
2018-10-21T08:58:19.238Z,25.48
2018-10-21T09:00:46.778Z,25.34
2018-10-21T09:03:14.406Z,24.45
2018-10-21T09:05:41.947Z,24.80
2018-10-21T09:08:09.487Z,24.09
2018-10-21T09:10:37.091Z,23.78
2018-10-21T09:13:04.604Z,23.59
2018-10-21T09:15:32.223Z,21.81
2018-10-21T09:17:59.710Z,23.24
2018-10-21T09:20:27.572Z,23.47
2018-10-21T09:22:55.177Z,22.46
2018-10-21T09:25:22.707Z,22.08
2018-10-21T09:27:50.182Z,20.91
2018-10-21T09:30:17.787Z,22.57
2018-10-21T09:32:45.359Z,21.67
2018-10-21T09:35:15.256Z,22.60
2018-10-21T09:37:43.206Z,21.78
2018-10-21T09:40:12.448Z,20.63
2018-10-21T09:42:39.970Z,22.28
2018-10-21T09:45:08.200Z,20.41
2018-10-21T09:47:35.787Z,20.15
2018-10-21T09:50:03.583Z,20.93
2018-10-21T09:52:31.066Z,21.04
2018-10-21T09:54:58.631Z,22.55
2018-10-21T09:57:26.152Z,21.87
2018-10-21T09:59:53.664Z,22.06
2018-10-21T10:02:26.934Z,21.27
2018-10-21T10:04:54.459Z,22.74
2018-10-21T10:07:22.371Z,23.32
2018-10-21T10:09:49.928Z,23.43
2018-10-21T10:12:17.462Z,24.83
2018-10-21T10:14:44.981Z,24.33
2018-10-21T10:17:12.560Z,23.67
2018-10-21T10:19:40.107Z,23.78
2018-10-21T10:22:07.719Z,24.01
2018-10-21T10:24:35.213Z,24.10
2018-10-21T10:27:02.848Z,24.96
2018-10-21T10:29:30.363Z,25.81
2018-10-21T10:31:57.878Z,26.26
2018-10-21T10:34:25.412Z,26.59
2018-10-21T10:36:52.982Z,26.66
2018-10-21T10:39:20.554Z,27.23
2018-10-21T10:41:48.237Z,27.51
2018-10-21T10:44:15.752Z,28.15
2018-10-21T10:46:43.287Z,30.90
2018-10-21T10:49:10.922Z,33.50
2018-10-21T10:51:38.421Z,34.71
2018-10-21T10:54:06.175Z,35.80
2018-10-21T10:56:33.732Z,37.06
2018-10-21T10:59:01.902Z,39.45
2018-10-21T11:01:29.431Z,39.96
2018-10-21T11:03:57.486Z,41.13
2018-10-21T11:06:25.134Z,42.93
2018-10-21T11:11:27.206Z,44.55
2018-10-21T11:13:54.808Z,42.90
2018-10-21T11:16:22.315Z,44.32
2018-10-21T11:18:49.918Z,44.12
2018-10-21T11:21:17.479Z,45.93
2018-10-21T11:23:45.270Z,46.93
2018-10-21T11:26:12.892Z,46.48
2018-10-21T11:28:40.547Z,46.13
2018-10-21T11:31:08.202Z,46.64
2018-10-21T11:33:35.739Z,47.52
2018-10-21T11:36:03.303Z,46.76
2018-10-21T11:38:30.895Z,47.15
2018-10-21T11:40:58.450Z,47.07
2018-10-21T11:43:26.022Z,47.60
2018-10-21T11:45:53.601Z,48.33
2018-10-21T11:48:21.172Z,48.05
2018-10-21T11:50:48.791Z,48.91
2018-10-21T11:53:16.399Z,49.68
2018-10-21T11:55:43.964Z,49.39
2018-10-21T11:58:12.918Z,49.79
2018-10-21T12:00:40.992Z,49.24
2018-10-21T12:03:09.876Z,49.44
2018-10-21T12:05:37.464Z,50.51
2018-10-21T12:08:05.027Z,50.91
2018-10-21T12:10:32.624Z,49.45
2018-10-21T12:13:00.237Z,49.86
2018-10-21T12:15:27.839Z,50.65
2018-10-21T12:17:55.383Z,50.28
2018-10-21T12:20:23.704Z,50.68
2018-10-21T12:22:52.106Z,51.67
2018-10-21T12:25:20.467Z,51.55
2018-10-21T12:27:48.590Z,51.33
2018-10-21T12:30:16.748Z,51.53
2018-10-21T12:32:44.976Z,51.46
2018-10-21T12:35:13.268Z,50.71
2018-10-21T12:37:41.664Z,49.65
2018-10-21T12:40:10.339Z,49.34
2018-10-21T12:42:39.133Z,50.60
2018-10-21T12:45:09.763Z,51.40
2018-10-21T12:47:38.332Z,51.97
2018-10-21T12:50:07.246Z,50.81
2018-10-21T12:52:35.592Z,52.22
2018-10-21T12:55:04.626Z,51.82
2018-10-21T12:57:32.919Z,52.53
2018-10-21T13:00:01.199Z,52.18
2018-10-21T13:02:29.429Z,52.27
2018-10-21T13:04:57.692Z,52.64
2018-10-21T13:07:25.926Z,52.32
2018-10-21T13:09:54.168Z,51.80
2018-10-21T13:12:22.519Z,52.34
2018-10-21T13:14:50.739Z,52.29
2018-10-21T13:17:18.970Z,52.25
2018-10-21T13:19:47.280Z,52.75
2018-10-21T13:22:15.695Z,52.23
2018-10-21T13:24:43.858Z,52.57
2018-10-21T13:27:12.163Z,52.43
2018-10-21T13:29:40.458Z,52.48
2018-10-21T13:32:08.786Z,52.70
2018-10-21T13:34:37.029Z,52.54
2018-10-21T13:37:05.357Z,51.69
2018-10-21T13:39:33.612Z,51.53
2018-10-21T13:42:01.886Z,50.90
2018-10-21T13:44:30.105Z,50.50
2018-10-21T13:46:58.374Z,50.94
2018-10-21T13:49:26.595Z,52.08
2018-10-21T13:51:54.916Z,52.01
2018-10-21T13:54:23.073Z,52.74
2018-10-21T13:56:51.312Z,52.48
2018-10-21T13:59:19.717Z,51.88
2018-10-21T14:01:47.969Z,50.76
2018-10-21T14:04:16.365Z,50.97
2018-10-21T14:06:44.624Z,50.49
2018-10-21T14:09:13.601Z,49.85
2018-10-21T14:11:41.878Z,49.79
2018-10-21T14:14:11.062Z,49.54
2018-10-21T14:16:39.648Z,51.54
2018-10-21T14:19:08.364Z,51.52
2018-10-21T14:21:36.625Z,51.24
2018-10-21T14:24:05.172Z,50.53
2018-10-21T14:26:33.489Z,49.52
2018-10-21T14:29:01.786Z,49.33
2018-10-21T14:31:30.100Z,48.79
2018-10-21T14:33:58.313Z,48.93
2018-10-21T14:36:26.516Z,49.98
2018-10-21T14:38:54.781Z,49.92
2018-10-21T14:41:23.113Z,50.47
2018-10-21T14:43:51.433Z,51.01
2018-10-21T14:46:19.643Z,50.06
2018-10-21T14:48:48.765Z,50.20
2018-10-21T14:51:17.086Z,48.75
2018-10-21T14:53:45.346Z,48.34
2018-10-21T14:56:13.808Z,47.89
2018-10-21T14:58:41.928Z,48.66
2018-10-21T15:01:10.210Z,48.36
2018-10-21T15:03:38.522Z,47.99
2018-10-21T15:06:06.752Z,47.93
2018-10-21T15:08:34.931Z,48.13
2018-10-21T15:11:03.240Z,48.74
2018-10-21T15:13:31.466Z,47.56
2018-10-21T15:15:59.727Z,48.16
2018-10-21T15:18:27.965Z,47.41
2018-10-21T15:20:56.213Z,45.31
2018-10-21T15:23:26.483Z,45.90
2018-10-21T15:25:57.535Z,44.99
2018-10-21T15:28:25.790Z,43.63
2018-10-21T15:30:54.090Z,43.43
2018-10-21T15:33:22.336Z,42.79
2018-10-21T15:35:50.865Z,41.99
2018-10-21T15:38:19.160Z,41.73
2018-10-21T15:40:47.353Z,41.33
2018-10-21T15:43:15.677Z,42.14
2018-10-21T15:45:44.017Z,42.20
2018-10-21T15:48:12.342Z,40.13
2018-10-21T15:50:40.644Z,40.55
2018-10-21T15:53:08.847Z,40.78
2018-10-21T15:55:37.157Z,41.39
2018-10-21T15:58:05.521Z,41.12
2018-10-21T16:00:33.784Z,40.55
2018-10-21T16:03:02.099Z,40.88
2018-10-21T16:05:30.332Z,40.83
2018-10-21T16:07:58.660Z,41.07
2018-10-21T16:10:26.870Z,41.35
2018-10-21T16:12:55.148Z,41.62
2018-10-21T16:15:23.449Z,41.36
2018-10-21T16:17:51.730Z,41.57
2018-10-21T16:20:20.156Z,41.93
2018-10-21T16:22:48.282Z,42.30
2018-10-21T16:25:16.581Z,42.74
2018-10-21T16:27:44.846Z,43.40
2018-10-21T16:30:14.347Z,43.75
2018-10-21T16:32:43.314Z,44.22
2018-10-21T16:35:12.019Z,44.43
2018-10-21T16:37:40.649Z,44.45
2018-10-21T16:40:11.749Z,44.58
2018-10-21T16:42:40.125Z,44.94
2018-10-21T16:45:09.396Z,45.03
2018-10-21T16:47:38.324Z,45.36
2018-10-21T16:50:13.224Z,46.00
2018-10-21T16:52:42.701Z,45.59
2018-10-21T16:55:11.654Z,45.85
2018-10-21T16:57:40.037Z,45.14
2018-10-21T17:00:13.060Z,45.65
2018-10-21T17:02:41.629Z,46.05
2018-10-21T17:05:10.237Z,46.08
2018-10-21T17:07:38.567Z,47.01
2018-10-21T17:10:08.512Z,47.11
2018-10-21T17:12:36.612Z,47.18
2018-10-21T17:15:05.963Z,47.57
2018-10-21T17:17:34.433Z,47.24
2018-10-21T17:20:02.818Z,46.85
2018-10-21T17:22:31.136Z,47.42
2018-10-21T17:24:59.588Z,47.89
2018-10-21T17:27:27.791Z,47.98
2018-10-21T17:29:56.037Z,47.55
2018-10-21T17:32:24.343Z,47.91
2018-10-21T17:34:52.593Z,48.15
2018-10-21T17:37:20.912Z,48.03
2018-10-21T17:39:49.213Z,48.94
2018-10-21T17:42:17.706Z,48.50
2018-10-21T17:44:45.948Z,48.09
2018-10-21T17:47:14.242Z,48.08
2018-10-21T17:49:42.523Z,48.01
2018-10-21T17:52:10.963Z,48.12
2018-10-21T17:54:39.133Z,48.95
2018-10-21T17:57:07.480Z,49.20
2018-10-21T17:59:36.054Z,49.19
2018-10-21T18:02:04.614Z,49.49
2018-10-21T18:04:32.877Z,49.54
2018-10-21T18:07:01.298Z,50.16
2018-10-21T18:09:29.566Z,50.30
2018-10-21T18:11:57.884Z,50.97
2018-10-21T18:14:26.189Z,51.97
2018-10-21T18:16:54.462Z,51.63
2018-10-21T18:19:22.881Z,51.26
2018-10-21T18:21:51.176Z,51.50
2018-10-21T18:24:19.650Z,51.46
2018-10-21T18:26:47.940Z,52.14
2018-10-21T18:29:16.287Z,52.28
2018-10-21T18:31:44.651Z,52.90
2018-10-21T18:34:12.985Z,52.97
2018-10-21T18:36:41.244Z,53.22
2018-10-21T18:39:10.323Z,53.42
2018-10-21T18:41:38.618Z,53.21
2018-10-21T18:44:07.558Z,53.92
2018-10-21T18:46:35.924Z,54.16
2018-10-21T18:49:04.337Z,54.49
2018-10-21T18:51:32.610Z,54.02
2018-10-21T18:54:00.864Z,54.95
2018-10-21T18:56:29.179Z,54.53
2018-10-21T18:58:57.583Z,54.37
2018-10-21T19:01:25.875Z,55.55
2018-10-21T19:03:54.200Z,55.86
2018-10-21T19:06:22.452Z,56.31
2018-10-21T19:08:50.711Z,56.59
2018-10-21T19:11:18.982Z,57.02
2018-10-21T19:13:47.330Z,56.20
2018-10-21T19:16:15.641Z,56.46
2018-10-21T19:18:44.158Z,57.47
2018-10-21T19:21:12.451Z,57.27
2018-10-21T19:23:40.696Z,56.79
2018-10-21T19:26:08.955Z,56.87
2018-10-21T19:28:37.239Z,57.59
2018-10-21T19:31:06.242Z,57.59
2018-10-21T19:33:34.524Z,58.03
2018-10-21T19:36:02.810Z,58.23
2018-10-21T19:38:31.067Z,58.46
2018-10-21T19:40:59.369Z,57.42
2018-10-21T19:43:27.670Z,57.75
2018-10-21T19:45:55.920Z,57.41
2018-10-21T19:48:24.207Z,58.00
2018-10-21T19:50:52.418Z,58.35
2018-10-21T19:53:20.657Z,58.80
2018-10-21T19:55:48.946Z,59.20
2018-10-21T19:58:17.298Z,59.30
2018-10-21T20:00:45.517Z,59.15
2018-10-21T20:03:13.840Z,59.18
2018-10-21T20:05:42.106Z,59.16
2018-10-21T20:08:10.430Z,58.55
2018-10-21T20:10:38.694Z,59.33
2018-10-21T20:13:06.998Z,58.92
2018-10-21T20:15:35.205Z,58.65
2018-10-21T20:18:03.786Z,58.96
2018-10-21T20:20:32.025Z,58.79
2018-10-21T20:23:00.321Z,58.65
2018-10-21T20:25:28.612Z,58.84
2018-10-21T20:27:56.898Z,59.30
2018-10-21T20:30:25.146Z,59.33
2018-10-21T20:32:53.500Z,59.97
2018-10-21T20:35:21.733Z,58.62
2018-10-21T20:37:50.019Z,59.96
2018-10-21T20:40:18.394Z,60.59
2018-10-21T20:42:46.804Z,60.19
2018-10-21T20:45:15.060Z,60.52
2018-10-21T20:47:43.365Z,60.45
2018-10-21T20:50:11.622Z,61.25
2018-10-21T20:52:39.871Z,60.87
2018-10-21T20:55:08.936Z,60.83
2018-10-21T20:57:37.164Z,60.76
2018-10-21T21:00:05.848Z,61.27
2018-10-21T21:02:34.142Z,61.85
2018-10-21T21:05:02.515Z,61.15
2018-10-21T21:07:30.797Z,61.70
2018-10-21T21:09:59.046Z,60.65
2018-10-21T21:12:27.284Z,60.81
2018-10-21T21:14:55.547Z,61.18
2018-10-21T21:17:23.765Z,61.70
2018-10-21T21:19:51.970Z,62.06
2018-10-21T21:22:20.279Z,61.52
2018-10-21T21:24:48.424Z,62.00
2018-10-21T21:27:16.696Z,62.58
2018-10-21T21:29:44.973Z,61.86
2018-10-21T21:32:13.238Z,62.01
2018-10-21T21:34:41.539Z,62.08
2018-10-21T21:37:09.760Z,61.92
2018-10-21T21:39:37.971Z,61.94
2018-10-21T21:42:06.241Z,62.25
2018-10-21T21:44:34.501Z,62.27
2018-10-21T21:47:02.784Z,62.50
2018-10-21T21:49:31.025Z,62.28
2018-10-21T21:51:59.274Z,62.48
2018-10-21T21:54:27.535Z,62.22
2018-10-21T21:56:55.707Z,62.92
2018-10-21T21:59:23.952Z,63.47
2018-10-21T22:01:52.197Z,63.00
2018-10-21T22:04:20.402Z,62.79
2018-10-21T22:06:48.831Z,62.64
2018-10-21T22:09:17.040Z,62.55
2018-10-21T22:11:45.288Z,62.71
2018-10-21T22:14:13.557Z,63.00
2018-10-21T22:16:41.857Z,62.27
2018-10-21T22:19:10.098Z,62.96
2018-10-21T22:21:38.828Z,63.06
2018-10-21T22:24:08.338Z,62.90
2018-10-21T22:26:36.615Z,63.38
2018-10-21T22:29:05.074Z,62.95
2018-10-21T22:31:33.357Z,63.50
2018-10-21T22:34:01.666Z,63.54
2018-10-21T22:36:29.916Z,63.77
2018-10-21T22:38:58.160Z,64.25
2018-10-21T22:41:26.440Z,64.19
2018-10-21T22:43:54.629Z,64.10
2018-10-21T22:46:22.936Z,64.26
2018-10-21T22:48:51.154Z,64.40
2018-10-21T22:51:19.403Z,64.54
2018-10-21T22:53:47.634Z,64.68
2018-10-21T22:56:16.057Z,65.04
2018-10-21T22:58:44.267Z,65.00
2018-10-21T23:01:12.596Z,64.55
2018-10-21T23:03:40.855Z,64.95
2018-10-21T23:06:09.085Z,64.85
2018-10-21T23:08:37.304Z,64.52
2018-10-21T23:11:05.496Z,64.26
2018-10-21T23:13:33.733Z,64.48
2018-10-21T23:16:02.053Z,64.96
2018-10-21T23:18:30.495Z,65.28
2018-10-21T23:20:58.703Z,64.65
2018-10-21T23:23:26.973Z,64.86
2018-10-21T23:25:55.256Z,64.91
2018-10-21T23:28:23.485Z,65.44
2018-10-21T23:30:51.816Z,65.41
2018-10-21T23:33:20.076Z,64.83
2018-10-21T23:35:48.350Z,65.40
2018-10-21T23:38:16.619Z,64.52
2018-10-21T23:40:44.800Z,64.71
2018-10-21T23:43:13.004Z,65.15
2018-10-21T23:45:41.223Z,65.19
2018-10-21T23:48:09.466Z,65.67
2018-10-21T23:50:37.660Z,65.91
2018-10-21T23:53:06.349Z,65.61
2018-10-21T23:55:34.523Z,66.20
2018-10-21T23:58:02.790Z,66.47
